sensor_id;sensor_type;location;lat;lon;timestamp;P1;durP1;ratioP1;P2;durP2;ratioP2
70052;SDS011;57398;52.032;4.376;2023-04-30T00:00:37;24.43;;;11.70;;
70052;SDS011;57398;52.032;4.376;2023-04-30T00:03:25;24.65;;;11.63;;
70052;SDS011;57398;52.032;4.376;2023-04-30T00:06:13;26.17;;;12.20;;
70052;SDS011;57398;52.032;4.376;2023-04-30T00:09:01;24.13;;;11.38;;
70052;SDS011;57398;52.032;4.376;2023-04-30T00:11:51;25.38;;;11.35;;
70052;SDS011;57398;52.032;4.376;2023-04-30T00:14:39;24.10;;;11.47;;
70052;SDS011;57398;52.032;4.376;2023-04-30T00:17:27;22.27;;;11.38;;
70052;SDS011;57398;52.032;4.376;2023-04-30T00:20:16;23.98;;;10.93;;
70052;SDS011;57398;52.032;4.376;2023-04-30T00:23:04;24.23;;;11.77;;
70052;SDS011;57398;52.032;4.376;2023-04-30T00:25:52;22.95;;;11.60;;
70052;SDS011;57398;52.032;4.376;2023-04-30T00:28:42;24.27;;;12.17;;
70052;SDS011;57398;52.032;4.376;2023-04-30T00:31:30;29.70;;;13.45;;
70052;SDS011;57398;52.032;4.376;2023-04-30T00:34:19;30.23;;;13.48;;
70052;SDS011;57398;52.032;4.376;2023-04-30T00:37:07;27.60;;;12.77;;
70052;SDS011;57398;52.032;4.376;2023-04-30T00:39:55;26.88;;;12.50;;
70052;SDS011;57398;52.032;4.376;2023-04-30T00:42:43;24.53;;;12.13;;
70052;SDS011;57398;52.032;4.376;2023-04-30T00:45:33;26.77;;;12.52;;
70052;SDS011;57398;52.032;4.376;2023-04-30T00:48:21;22.98;;;11.50;;
70052;SDS011;57398;52.032;4.376;2023-04-30T00:51:09;26.05;;;11.95;;
70052;SDS011;57398;52.032;4.376;2023-04-30T00:53:58;28.05;;;12.45;;
70052;SDS011;57398;52.032;4.376;2023-04-30T00:56:48;27.80;;;12.20;;
70052;SDS011;57398;52.032;4.376;2023-04-30T00:59:36;32.58;;;12.30;;
70052;SDS011;57398;52.032;4.376;2023-04-30T01:02:27;26.38;;;13.00;;
70052;SDS011;57398;52.032;4.376;2023-04-30T01:05:16;26.85;;;13.00;;
70052;SDS011;57398;52.032;4.376;2023-04-30T01:08:06;31.42;;;14.02;;
70052;SDS011;57398;52.032;4.376;2023-04-30T01:11:00;26.63;;;12.50;;
70052;SDS011;57398;52.032;4.376;2023-04-30T01:13:58;27.30;;;13.38;;
70052;SDS011;57398;52.032;4.376;2023-04-30T01:16:57;29.10;;;13.52;;
70052;SDS011;57398;52.032;4.376;2023-04-30T01:19:53;26.55;;;13.05;;
70052;SDS011;57398;52.032;4.376;2023-04-30T01:22:45;27.70;;;13.18;;
70052;SDS011;57398;52.032;4.376;2023-04-30T01:25:43;25.30;;;11.93;;
70052;SDS011;57398;52.032;4.376;2023-04-30T01:28:43;28.25;;;12.70;;
70052;SDS011;57398;52.032;4.376;2023-04-30T01:31:32;32.00;;;13.13;;
70052;SDS011;57398;52.032;4.376;2023-04-30T01:34:21;31.42;;;13.15;;
70052;SDS011;57398;52.032;4.376;2023-04-30T01:37:11;31.73;;;13.35;;
70052;SDS011;57398;52.032;4.376;2023-04-30T01:40:11;26.23;;;11.57;;
70052;SDS011;57398;52.032;4.376;2023-04-30T01:43:11;26.52;;;12.07;;
70052;SDS011;57398;52.032;4.376;2023-04-30T01:46:11;28.48;;;12.23;;
70052;SDS011;57398;52.032;4.376;2023-04-30T01:49:07;30.13;;;12.23;;
70052;SDS011;57398;52.032;4.376;2023-04-30T01:52:04;26.88;;;11.93;;
70052;SDS011;57398;52.032;4.376;2023-04-30T01:55:00;25.77;;;11.47;;
70052;SDS011;57398;52.032;4.376;2023-04-30T01:57:55;28.02;;;11.82;;
70052;SDS011;57398;52.032;4.376;2023-04-30T02:00:45;30.98;;;12.23;;
70052;SDS011;57398;52.032;4.376;2023-04-30T02:03:34;25.33;;;11.82;;
70052;SDS011;57398;52.032;4.376;2023-04-30T02:06:23;25.45;;;11.45;;
70052;SDS011;57398;52.032;4.376;2023-04-30T02:09:14;25.53;;;12.00;;
70052;SDS011;57398;52.032;4.376;2023-04-30T02:12:02;30.20;;;13.40;;
70052;SDS011;57398;52.032;4.376;2023-04-30T02:14:51;27.73;;;12.55;;
70052;SDS011;57398;52.032;4.376;2023-04-30T02:17:39;29.30;;;12.88;;
70052;SDS011;57398;52.032;4.376;2023-04-30T02:20:29;32.17;;;12.75;;
70052;SDS011;57398;52.032;4.376;2023-04-30T02:23:17;29.17;;;12.80;;
70052;SDS011;57398;52.032;4.376;2023-04-30T02:26:05;34.75;;;13.57;;
70052;SDS011;57398;52.032;4.376;2023-04-30T02:28:53;29.27;;;13.32;;
70052;SDS011;57398;52.032;4.376;2023-04-30T02:31:41;29.45;;;12.48;;
70052;SDS011;57398;52.032;4.376;2023-04-30T02:34:30;26.67;;;12.30;;
70052;SDS011;57398;52.032;4.376;2023-04-30T02:37:20;31.23;;;13.33;;
70052;SDS011;57398;52.032;4.376;2023-04-30T02:40:09;28.92;;;12.13;;
70052;SDS011;57398;52.032;4.376;2023-04-30T02:42:58;30.20;;;12.65;;
70052;SDS011;57398;52.032;4.376;2023-04-30T02:45:48;28.33;;;11.68;;
70052;SDS011;57398;52.032;4.376;2023-04-30T02:48:36;29.75;;;12.93;;
70052;SDS011;57398;52.032;4.376;2023-04-30T02:51:24;30.47;;;12.10;;
70052;SDS011;57398;52.032;4.376;2023-04-30T02:54:15;31.10;;;13.02;;
70052;SDS011;57398;52.032;4.376;2023-04-30T02:57:03;31.10;;;12.60;;
70052;SDS011;57398;52.032;4.376;2023-04-30T02:59:52;32.88;;;13.88;;
70052;SDS011;57398;52.032;4.376;2023-04-30T03:02:41;32.80;;;12.98;;
70052;SDS011;57398;52.032;4.376;2023-04-30T03:05:30;33.10;;;13.00;;
70052;SDS011;57398;52.032;4.376;2023-04-30T03:08:18;29.25;;;12.32;;
70052;SDS011;57398;52.032;4.376;2023-04-30T03:11:08;31.02;;;13.10;;
70052;SDS011;57398;52.032;4.376;2023-04-30T03:13:56;29.42;;;12.38;;
70052;SDS011;57398;52.032;4.376;2023-04-30T03:16:44;29.55;;;12.23;;
70052;SDS011;57398;52.032;4.376;2023-04-30T03:19:32;28.53;;;11.67;;
70052;SDS011;57398;52.032;4.376;2023-04-30T03:22:20;30.05;;;12.50;;
70052;SDS011;57398;52.032;4.376;2023-04-30T03:25:09;32.92;;;12.60;;
70052;SDS011;57398;52.032;4.376;2023-04-30T03:27:59;28.08;;;11.40;;
70052;SDS011;57398;52.032;4.376;2023-04-30T03:30:48;25.30;;;11.18;;
70052;SDS011;57398;52.032;4.376;2023-04-30T03:33:36;29.97;;;10.90;;
70052;SDS011;57398;52.032;4.376;2023-04-30T03:36:24;28.67;;;11.60;;
70052;SDS011;57398;52.032;4.376;2023-04-30T03:39:13;28.63;;;11.73;;
70052;SDS011;57398;52.032;4.376;2023-04-30T03:42:01;29.95;;;11.80;;
70052;SDS011;57398;52.032;4.376;2023-04-30T03:44:51;31.45;;;11.43;;
70052;SDS011;57398;52.032;4.376;2023-04-30T03:47:39;29.40;;;12.73;;
70052;SDS011;57398;52.032;4.376;2023-04-30T03:50:27;35.22;;;12.93;;
70052;SDS011;57398;52.032;4.376;2023-04-30T03:53:15;34.75;;;12.80;;
70052;SDS011;57398;52.032;4.376;2023-04-30T03:56:04;29.30;;;12.13;;
70052;SDS011;57398;52.032;4.376;2023-04-30T03:58:53;27.70;;;11.93;;
70052;SDS011;57398;52.032;4.376;2023-04-30T04:01:43;27.80;;;12.17;;
70052;SDS011;57398;52.032;4.376;2023-04-30T04:04:31;31.40;;;12.95;;
70052;SDS011;57398;52.032;4.376;2023-04-30T04:07:20;36.42;;;13.18;;
70052;SDS011;57398;52.032;4.376;2023-04-30T04:10:09;32.30;;;12.80;;
70052;SDS011;57398;52.032;4.376;2023-04-30T04:12:57;29.00;;;12.27;;
70052;SDS011;57398;52.032;4.376;2023-04-30T04:15:45;33.83;;;13.17;;
70052;SDS011;57398;52.032;4.376;2023-04-30T04:18:35;30.45;;;12.73;;
70052;SDS011;57398;52.032;4.376;2023-04-30T04:21:23;32.85;;;12.38;;
70052;SDS011;57398;52.032;4.376;2023-04-30T04:24:11;31.25;;;12.40;;
70052;SDS011;57398;52.032;4.376;2023-04-30T04:26:59;32.22;;;12.25;;
70052;SDS011;57398;52.032;4.376;2023-04-30T04:29:48;32.17;;;12.47;;
70052;SDS011;57398;52.032;4.376;2023-04-30T04:32:36;33.20;;;13.45;;
70052;SDS011;57398;52.032;4.376;2023-04-30T04:35:33;35.78;;;13.75;;
70052;SDS011;57398;52.032;4.376;2023-04-30T04:38:21;32.22;;;12.95;;
70052;SDS011;57398;52.032;4.376;2023-04-30T04:41:09;34.67;;;13.07;;
70052;SDS011;57398;52.032;4.376;2023-04-30T04:43:59;33.20;;;12.67;;
70052;SDS011;57398;52.032;4.376;2023-04-30T04:46:48;35.65;;;13.98;;
70052;SDS011;57398;52.032;4.376;2023-04-30T04:49:39;36.72;;;14.10;;
70052;SDS011;57398;52.032;4.376;2023-04-30T04:52:29;36.30;;;13.40;;
70052;SDS011;57398;52.032;4.376;2023-04-30T04:55:17;35.15;;;13.75;;
70052;SDS011;57398;52.032;4.376;2023-04-30T04:58:05;37.80;;;14.40;;
70052;SDS011;57398;52.032;4.376;2023-04-30T05:00:53;38.17;;;14.07;;
70052;SDS011;57398;52.032;4.376;2023-04-30T05:03:43;34.03;;;14.27;;
70052;SDS011;57398;52.032;4.376;2023-04-30T05:06:31;33.15;;;14.57;;
70052;SDS011;57398;52.032;4.376;2023-04-30T05:09:20;30.73;;;13.85;;
70052;SDS011;57398;52.032;4.376;2023-04-30T05:12:08;34.97;;;13.63;;
70052;SDS011;57398;52.032;4.376;2023-04-30T05:14:56;33.58;;;13.70;;
70052;SDS011;57398;52.032;4.376;2023-04-30T05:17:45;36.50;;;13.60;;
70052;SDS011;57398;52.032;4.376;2023-04-30T05:20:33;31.42;;;12.98;;
70052;SDS011;57398;52.032;4.376;2023-04-30T05:23:21;34.88;;;14.23;;
70052;SDS011;57398;52.032;4.376;2023-04-30T05:26:11;32.30;;;13.00;;
70052;SDS011;57398;52.032;4.376;2023-04-30T05:28:59;32.35;;;12.93;;
70052;SDS011;57398;52.032;4.376;2023-04-30T05:31:47;32.05;;;12.68;;
70052;SDS011;57398;52.032;4.376;2023-04-30T05:34:35;31.50;;;12.77;;
70052;SDS011;57398;52.032;4.376;2023-04-30T05:37:23;30.80;;;12.45;;
70052;SDS011;57398;52.032;4.376;2023-04-30T05:40:12;29.30;;;11.67;;
70052;SDS011;57398;52.032;4.376;2023-04-30T05:43:02;29.85;;;11.40;;
70052;SDS011;57398;52.032;4.376;2023-04-30T05:45:51;26.52;;;11.82;;
70052;SDS011;57398;52.032;4.376;2023-04-30T05:48:39;24.60;;;10.82;;
70052;SDS011;57398;52.032;4.376;2023-04-30T05:51:27;23.95;;;10.25;;
70052;SDS011;57398;52.032;4.376;2023-04-30T05:54:15;23.33;;;9.77;;
70052;SDS011;57398;52.032;4.376;2023-04-30T05:57:03;25.02;;;10.18;;
70052;SDS011;57398;52.032;4.376;2023-04-30T05:59:53;20.05;;;9.25;;
70052;SDS011;57398;52.032;4.376;2023-04-30T06:02:41;21.30;;;9.13;;
70052;SDS011;57398;52.032;4.376;2023-04-30T06:05:29;18.95;;;8.82;;
70052;SDS011;57398;52.032;4.376;2023-04-30T06:08:17;18.03;;;8.37;;
70052;SDS011;57398;52.032;4.376;2023-04-30T06:11:05;15.32;;;7.72;;
70052;SDS011;57398;52.032;4.376;2023-04-30T06:13:53;16.75;;;8.55;;
70052;SDS011;57398;52.032;4.376;2023-04-30T06:16:43;16.38;;;7.45;;
70052;SDS011;57398;52.032;4.376;2023-04-30T06:19:32;17.20;;;7.25;;
70052;SDS011;57398;52.032;4.376;2023-04-30T06:22:20;14.97;;;7.30;;
70052;SDS011;57398;52.032;4.376;2023-04-30T06:25:08;14.98;;;7.22;;
70052;SDS011;57398;52.032;4.376;2023-04-30T06:27:56;16.55;;;6.40;;
70052;SDS011;57398;52.032;4.376;2023-04-30T06:30:44;14.05;;;6.57;;
70052;SDS011;57398;52.032;4.376;2023-04-30T06:33:34;13.95;;;6.75;;
70052;SDS011;57398;52.032;4.376;2023-04-30T06:36:22;14.07;;;6.33;;
70052;SDS011;57398;52.032;4.376;2023-04-30T06:39:13;12.95;;;6.20;;
70052;SDS011;57398;52.032;4.376;2023-04-30T06:42:02;13.00;;;6.70;;
70052;SDS011;57398;52.032;4.376;2023-04-30T06:44:50;13.95;;;6.18;;
70052;SDS011;57398;52.032;4.376;2023-04-30T06:47:38;13.75;;;6.05;;
70052;SDS011;57398;52.032;4.376;2023-04-30T06:50:29;13.13;;;6.47;;
70052;SDS011;57398;52.032;4.376;2023-04-30T06:53:17;14.02;;;6.28;;
70052;SDS011;57398;52.032;4.376;2023-04-30T06:56:06;13.35;;;6.25;;
70052;SDS011;57398;52.032;4.376;2023-04-30T06:58:56;13.57;;;5.63;;
70052;SDS011;57398;52.032;4.376;2023-04-30T07:01:45;12.30;;;5.85;;
70052;SDS011;57398;52.032;4.376;2023-04-30T07:04:33;12.07;;;5.50;;
70052;SDS011;57398;52.032;4.376;2023-04-30T07:07:22;12.85;;;5.97;;
70052;SDS011;57398;52.032;4.376;2023-04-30T07:10:10;11.18;;;5.50;;
70052;SDS011;57398;52.032;4.376;2023-04-30T07:12:59;12.50;;;6.10;;
70052;SDS011;57398;52.032;4.376;2023-04-30T07:15:47;11.68;;;6.07;;
70052;SDS011;57398;52.032;4.376;2023-04-30T07:18:35;12.13;;;6.23;;
70052;SDS011;57398;52.032;4.376;2023-04-30T07:21:24;12.38;;;5.90;;
70052;SDS011;57398;52.032;4.376;2023-04-30T07:24:14;14.38;;;6.53;;
70052;SDS011;57398;52.032;4.376;2023-04-30T07:27:02;12.55;;;6.40;;
70052;SDS011;57398;52.032;4.376;2023-04-30T07:29:52;11.98;;;5.88;;
70052;SDS011;57398;52.032;4.376;2023-04-30T07:32:41;14.80;;;6.47;;
70052;SDS011;57398;52.032;4.376;2023-04-30T07:35:30;13.23;;;6.03;;
70052;SDS011;57398;52.032;4.376;2023-04-30T07:38:18;12.50;;;6.00;;
70052;SDS011;57398;52.032;4.376;2023-04-30T07:41:09;14.45;;;6.32;;
70052;SDS011;57398;52.032;4.376;2023-04-30T07:43:57;14.18;;;6.22;;
70052;SDS011;57398;52.032;4.376;2023-04-30T07:46:45;12.27;;;6.13;;
70052;SDS011;57398;52.032;4.376;2023-04-30T07:49:35;11.95;;;5.60;;
70052;SDS011;57398;52.032;4.376;2023-04-30T07:52:23;12.60;;;5.50;;
70052;SDS011;57398;52.032;4.376;2023-04-30T07:55:11;12.73;;;5.93;;
70052;SDS011;57398;52.032;4.376;2023-04-30T07:58:01;13.30;;;5.82;;
70052;SDS011;57398;52.032;4.376;2023-04-30T08:00:50;11.33;;;5.50;;
70052;SDS011;57398;52.032;4.376;2023-04-30T08:03:38;13.73;;;6.43;;
70052;SDS011;57398;52.032;4.376;2023-04-30T08:06:26;11.98;;;5.78;;
70052;SDS011;57398;52.032;4.376;2023-04-30T08:09:14;10.88;;;5.32;;
70052;SDS011;57398;52.032;4.376;2023-04-30T08:12:03;12.15;;;6.20;;
70052;SDS011;57398;52.032;4.376;2023-04-30T08:14:59;12.80;;;5.90;;
70052;SDS011;57398;52.032;4.376;2023-04-30T08:17:48;9.70;;;4.82;;
70052;SDS011;57398;52.032;4.376;2023-04-30T08:20:36;10.82;;;5.22;;
70052;SDS011;57398;52.032;4.376;2023-04-30T08:23:25;9.27;;;4.93;;
70052;SDS011;57398;52.032;4.376;2023-04-30T08:26:14;10.38;;;5.38;;
70052;SDS011;57398;52.032;4.376;2023-04-30T08:29:02;11.70;;;5.43;;
70052;SDS011;57398;52.032;4.376;2023-04-30T08:31:51;10.95;;;5.25;;
70052;SDS011;57398;52.032;4.376;2023-04-30T08:34:39;10.20;;;5.38;;
70052;SDS011;57398;52.032;4.376;2023-04-30T08:37:30;9.90;;;4.55;;
70052;SDS011;57398;52.032;4.376;2023-04-30T08:40:19;9.65;;;4.40;;
70052;SDS011;57398;52.032;4.376;2023-04-30T08:43:09;9.57;;;4.93;;
70052;SDS011;57398;52.032;4.376;2023-04-30T08:45:57;11.25;;;5.30;;
70052;SDS011;57398;52.032;4.376;2023-04-30T08:48:47;8.65;;;4.75;;
70052;SDS011;57398;52.032;4.376;2023-04-30T08:51:36;8.82;;;4.28;;
70052;SDS011;57398;52.032;4.376;2023-04-30T08:54:24;9.52;;;4.55;;
70052;SDS011;57398;52.032;4.376;2023-04-30T08:57:15;8.53;;;4.53;;
70052;SDS011;57398;52.032;4.376;2023-04-30T09:00:03;9.60;;;4.50;;
70052;SDS011;57398;52.032;4.376;2023-04-30T09:02:53;7.53;;;3.78;;
70052;SDS011;57398;52.032;4.376;2023-04-30T09:05:43;7.45;;;4.45;;
70052;SDS011;57398;52.032;4.376;2023-04-30T09:08:40;6.90;;;4.07;;
70052;SDS011;57398;52.032;4.376;2023-04-30T09:11:30;6.97;;;3.60;;
70052;SDS011;57398;52.032;4.376;2023-04-30T09:14:22;6.72;;;3.70;;
70052;SDS011;57398;52.032;4.376;2023-04-30T09:17:13;6.80;;;3.70;;
70052;SDS011;57398;52.032;4.376;2023-04-30T09:20:09;7.15;;;3.80;;
70052;SDS011;57398;52.032;4.376;2023-04-30T09:23:05;6.50;;;3.63;;
70052;SDS011;57398;52.032;4.376;2023-04-30T09:25:54;6.03;;;3.40;;
70052;SDS011;57398;52.032;4.376;2023-04-30T09:28:53;7.22;;;3.50;;
70052;SDS011;57398;52.032;4.376;2023-04-30T09:31:43;6.15;;;3.40;;
70052;SDS011;57398;52.032;4.376;2023-04-30T09:34:33;7.07;;;3.40;;
70052;SDS011;57398;52.032;4.376;2023-04-30T09:37:21;6.70;;;3.50;;
70052;SDS011;57398;52.032;4.376;2023-04-30T09:40:33;6.63;;;3.83;;
70052;SDS011;57398;52.032;4.376;2023-04-30T09:43:22;6.40;;;3.28;;
70052;SDS011;57398;52.032;4.376;2023-04-30T09:46:10;6.10;;;2.90;;
70052;SDS011;57398;52.032;4.376;2023-04-30T09:49:01;6.00;;;3.25;;
70052;SDS011;57398;52.032;4.376;2023-04-30T09:51:54;5.47;;;2.90;;
70052;SDS011;57398;52.032;4.376;2023-04-30T09:54:43;6.50;;;3.70;;
70052;SDS011;57398;52.032;4.376;2023-04-30T09:57:34;6.25;;;2.95;;
70052;SDS011;57398;52.032;4.376;2023-04-30T10:00:23;6.07;;;2.83;;
70052;SDS011;57398;52.032;4.376;2023-04-30T10:03:13;6.07;;;3.00;;
70052;SDS011;57398;52.032;4.376;2023-04-30T10:06:01;5.35;;;2.90;;
70052;SDS011;57398;52.032;4.376;2023-04-30T10:08:52;5.10;;;2.73;;
70052;SDS011;57398;52.032;4.376;2023-04-30T10:11:43;6.22;;;3.63;;
70052;SDS011;57398;52.032;4.376;2023-04-30T10:14:33;6.30;;;3.00;;
70052;SDS011;57398;52.032;4.376;2023-04-30T10:17:22;5.43;;;3.00;;
70052;SDS011;57398;52.032;4.376;2023-04-30T10:20:14;7.28;;;3.55;;
70052;SDS011;57398;52.032;4.376;2023-04-30T10:23:05;6.30;;;3.40;;
70052;SDS011;57398;52.032;4.376;2023-04-30T10:25:55;7.45;;;3.70;;
70052;SDS011;57398;52.032;4.376;2023-04-30T10:28:45;6.32;;;3.50;;
70052;SDS011;57398;52.032;4.376;2023-04-30T10:31:38;6.80;;;3.50;;
70052;SDS011;57398;52.032;4.376;2023-04-30T10:34:34;6.32;;;3.17;;
70052;SDS011;57398;52.032;4.376;2023-04-30T10:37:29;6.73;;;3.33;;
70052;SDS011;57398;52.032;4.376;2023-04-30T10:40:25;7.63;;;3.47;;
70052;SDS011;57398;52.032;4.376;2023-04-30T10:43:15;6.75;;;3.30;;
70052;SDS011;57398;52.032;4.376;2023-04-30T10:46:05;6.07;;;2.85;;
70052;SDS011;57398;52.032;4.376;2023-04-30T10:48:56;7.45;;;3.20;;
70052;SDS011;57398;52.032;4.376;2023-04-30T10:51:46;7.10;;;3.47;;
70052;SDS011;57398;52.032;4.376;2023-04-30T10:54:35;7.07;;;3.55;;
70052;SDS011;57398;52.032;4.376;2023-04-30T10:57:24;7.55;;;3.88;;
70052;SDS011;57398;52.032;4.376;2023-04-30T11:00:20;7.35;;;3.47;;
70052;SDS011;57398;52.032;4.376;2023-04-30T11:03:12;6.60;;;2.95;;
70052;SDS011;57398;52.032;4.376;2023-04-30T11:06:07;7.37;;;2.90;;
70052;SDS011;57398;52.032;4.376;2023-04-30T11:08:57;6.35;;;3.22;;
70052;SDS011;57398;52.032;4.376;2023-04-30T11:11:54;6.13;;;3.28;;
70052;SDS011;57398;52.032;4.376;2023-04-30T11:14:49;7.20;;;3.92;;
70052;SDS011;57398;52.032;4.376;2023-04-30T11:17:37;7.15;;;4.10;;
70052;SDS011;57398;52.032;4.376;2023-04-30T11:20:26;6.27;;;2.50;;
70052;SDS011;57398;52.032;4.376;2023-04-30T11:23:16;7.38;;;3.30;;
70052;SDS011;57398;52.032;4.376;2023-04-30T11:26:23;7.57;;;3.88;;
70052;SDS011;57398;52.032;4.376;2023-04-30T11:29:13;7.55;;;3.60;;
70052;SDS011;57398;52.032;4.376;2023-04-30T11:32:02;6.95;;;3.50;;
70052;SDS011;57398;52.032;4.376;2023-04-30T11:34:55;7.03;;;3.27;;
70052;SDS011;57398;52.032;4.376;2023-04-30T11:37:47;6.97;;;3.40;;
70052;SDS011;57398;52.032;4.376;2023-04-30T11:40:37;6.85;;;3.42;;
70052;SDS011;57398;52.032;4.376;2023-04-30T11:43:26;6.05;;;2.90;;
70052;SDS011;57398;52.032;4.376;2023-04-30T11:46:15;6.50;;;3.30;;
70052;SDS011;57398;52.032;4.376;2023-04-30T11:49:04;7.07;;;3.40;;
70052;SDS011;57398;52.032;4.376;2023-04-30T11:51:52;6.63;;;3.60;;
70052;SDS011;57398;52.032;4.376;2023-04-30T11:54:40;6.82;;;3.60;;
70052;SDS011;57398;52.032;4.376;2023-04-30T11:57:38;8.25;;;3.97;;
70052;SDS011;57398;52.032;4.376;2023-04-30T12:00:28;5.78;;;3.03;;
70052;SDS011;57398;52.032;4.376;2023-04-30T12:03:17;7.23;;;3.40;;
70052;SDS011;57398;52.032;4.376;2023-04-30T12:06:05;6.82;;;3.60;;
70052;SDS011;57398;52.032;4.376;2023-04-30T12:08:57;7.05;;;3.50;;
70052;SDS011;57398;52.032;4.376;2023-04-30T12:11:47;6.57;;;3.45;;
70052;SDS011;57398;52.032;4.376;2023-04-30T12:14:36;5.72;;;2.72;;
70052;SDS011;57398;52.032;4.376;2023-04-30T12:17:32;6.70;;;2.93;;
70052;SDS011;57398;52.032;4.376;2023-04-30T12:20:23;6.53;;;3.05;;
70052;SDS011;57398;52.032;4.376;2023-04-30T12:23:13;5.93;;;2.58;;
70052;SDS011;57398;52.032;4.376;2023-04-30T12:26:02;6.88;;;2.70;;
70052;SDS011;57398;52.032;4.376;2023-04-30T12:28:50;7.28;;;3.78;;
70052;SDS011;57398;52.032;4.376;2023-04-30T12:31:41;6.90;;;3.27;;
70052;SDS011;57398;52.032;4.376;2023-04-30T12:34:29;6.60;;;3.50;;
70052;SDS011;57398;52.032;4.376;2023-04-30T12:37:19;7.10;;;3.60;;
70052;SDS011;57398;52.032;4.376;2023-04-30T12:40:08;6.85;;;3.47;;
70052;SDS011;57398;52.032;4.376;2023-04-30T12:42:58;7.15;;;3.53;;
70052;SDS011;57398;52.032;4.376;2023-04-30T12:45:49;7.38;;;3.70;;
70052;SDS011;57398;52.032;4.376;2023-04-30T12:48:43;5.60;;;3.13;;
70052;SDS011;57398;52.032;4.376;2023-04-30T12:51:35;6.53;;;3.15;;
70052;SDS011;57398;52.032;4.376;2023-04-30T12:54:26;6.43;;;3.10;;
70052;SDS011;57398;52.032;4.376;2023-04-30T12:57:15;6.57;;;3.40;;
70052;SDS011;57398;52.032;4.376;2023-04-30T13:00:06;6.07;;;2.80;;
70052;SDS011;57398;52.032;4.376;2023-04-30T13:02:57;6.60;;;3.20;;
70052;SDS011;57398;52.032;4.376;2023-04-30T13:05:49;6.50;;;3.50;;
70052;SDS011;57398;52.032;4.376;2023-04-30T13:08:38;5.97;;;2.95;;
70052;SDS011;57398;52.032;4.376;2023-04-30T13:11:42;6.82;;;3.35;;
70052;SDS011;57398;52.032;4.376;2023-04-30T13:14:30;6.65;;;3.50;;
70052;SDS011;57398;52.032;4.376;2023-04-30T13:17:19;6.37;;;3.13;;
70052;SDS011;57398;52.032;4.376;2023-04-30T13:20:09;7.70;;;3.70;;
70052;SDS011;57398;52.032;4.376;2023-04-30T13:23:00;7.07;;;3.33;;
70052;SDS011;57398;52.032;4.376;2023-04-30T13:25:48;5.90;;;3.20;;
70052;SDS011;57398;52.032;4.376;2023-04-30T13:28:36;5.30;;;2.78;;
70052;SDS011;57398;52.032;4.376;2023-04-30T13:31:24;6.00;;;2.90;;
70052;SDS011;57398;52.032;4.376;2023-04-30T13:34:13;5.40;;;2.70;;
70052;SDS011;57398;52.032;4.376;2023-04-30T13:37:01;5.45;;;2.70;;
70052;SDS011;57398;52.032;4.376;2023-04-30T13:39:54;5.88;;;2.90;;
70052;SDS011;57398;52.032;4.376;2023-04-30T13:42:44;4.70;;;2.35;;
70052;SDS011;57398;52.032;4.376;2023-04-30T13:45:33;5.03;;;2.17;;
70052;SDS011;57398;52.032;4.376;2023-04-30T13:48:21;4.55;;;1.80;;
70052;SDS011;57398;52.032;4.376;2023-04-30T13:51:09;4.53;;;2.10;;
70052;SDS011;57398;52.032;4.376;2023-04-30T13:53:57;4.22;;;1.90;;
70052;SDS011;57398;52.032;4.376;2023-04-30T13:56:47;4.10;;;1.70;;
70052;SDS011;57398;52.032;4.376;2023-04-30T13:59:35;3.90;;;1.50;;
70052;SDS011;57398;52.032;4.376;2023-04-30T14:02:24;4.75;;;1.70;;
70052;SDS011;57398;52.032;4.376;2023-04-30T14:05:13;4.28;;;1.90;;
70052;SDS011;57398;52.032;4.376;2023-04-30T14:08:01;4.07;;;1.75;;
70052;SDS011;57398;52.032;4.376;2023-04-30T14:10:49;4.13;;;1.70;;
70052;SDS011;57398;52.032;4.376;2023-04-30T14:13:41;4.20;;;1.80;;
70052;SDS011;57398;52.032;4.376;2023-04-30T14:16:30;4.38;;;1.52;;
70052;SDS011;57398;52.032;4.376;2023-04-30T14:19:18;2.90;;;1.27;;
70052;SDS011;57398;52.032;4.376;2023-04-30T14:22:07;3.05;;;0.90;;
70052;SDS011;57398;52.032;4.376;2023-04-30T14:24:55;2.85;;;1.30;;
70052;SDS011;57398;52.032;4.376;2023-04-30T14:27:43;3.73;;;1.60;;
70052;SDS011;57398;52.032;4.376;2023-04-30T14:30:34;3.67;;;1.33;;
70052;SDS011;57398;52.032;4.376;2023-04-30T14:33:22;4.47;;;1.70;;
70052;SDS011;57398;52.032;4.376;2023-04-30T14:36:11;4.03;;;1.33;;
70052;SDS011;57398;52.032;4.376;2023-04-30T14:38:59;3.95;;;1.60;;
70052;SDS011;57398;52.032;4.376;2023-04-30T14:41:50;3.63;;;1.40;;
70052;SDS011;57398;52.032;4.376;2023-04-30T14:44:39;3.72;;;1.52;;
70052;SDS011;57398;52.032;4.376;2023-04-30T14:47:28;3.88;;;1.50;;
70052;SDS011;57398;52.032;4.376;2023-04-30T14:50:17;3.72;;;1.55;;
70052;SDS011;57398;52.032;4.376;2023-04-30T14:53:05;3.03;;;1.30;;
70052;SDS011;57398;52.032;4.376;2023-04-30T14:55:55;3.17;;;1.30;;
70052;SDS011;57398;52.032;4.376;2023-04-30T14:58:43;2.97;;;1.20;;
70052;SDS011;57398;52.032;4.376;2023-04-30T15:01:31;3.92;;;1.85;;
70052;SDS011;57398;52.032;4.376;2023-04-30T15:04:20;3.83;;;1.75;;
70052;SDS011;57398;52.032;4.376;2023-04-30T15:07:09;2.80;;;1.13;;
70052;SDS011;57398;52.032;4.376;2023-04-30T15:09:57;3.73;;;1.40;;
70052;SDS011;57398;52.032;4.376;2023-04-30T15:12:46;3.42;;;1.35;;
70052;SDS011;57398;52.032;4.376;2023-04-30T15:15:34;4.13;;;1.60;;
70052;SDS011;57398;52.032;4.376;2023-04-30T15:18:23;3.67;;;1.42;;
70052;SDS011;57398;52.032;4.376;2023-04-30T15:21:12;3.55;;;1.55;;
70052;SDS011;57398;52.032;4.376;2023-04-30T15:24:00;4.13;;;1.60;;
70052;SDS011;57398;52.032;4.376;2023-04-30T15:26:48;3.78;;;1.40;;
70052;SDS011;57398;52.032;4.376;2023-04-30T15:29:40;3.00;;;1.30;;
70052;SDS011;57398;52.032;4.376;2023-04-30T15:32:28;3.70;;;1.65;;
70052;SDS011;57398;52.032;4.376;2023-04-30T15:35:16;4.15;;;1.80;;
70052;SDS011;57398;52.032;4.376;2023-04-30T15:38:06;4.03;;;1.60;;
70052;SDS011;57398;52.032;4.376;2023-04-30T15:40:54;3.20;;;1.55;;
70052;SDS011;57398;52.032;4.376;2023-04-30T15:43:43;3.40;;;1.40;;
70052;SDS011;57398;52.032;4.376;2023-04-30T15:46:31;3.63;;;1.40;;
70052;SDS011;57398;52.032;4.376;2023-04-30T15:49:20;3.30;;;1.40;;
70052;SDS011;57398;52.032;4.376;2023-04-30T15:52:09;3.50;;;1.57;;
70052;SDS011;57398;52.032;4.376;2023-04-30T15:54:58;4.35;;;1.75;;
70052;SDS011;57398;52.032;4.376;2023-04-30T15:57:47;3.90;;;1.70;;
70052;SDS011;57398;52.032;4.376;2023-04-30T16:00:35;4.70;;;1.77;;
70052;SDS011;57398;52.032;4.376;2023-04-30T16:03:23;3.63;;;1.80;;
70052;SDS011;57398;52.032;4.376;2023-04-30T16:06:11;4.33;;;1.70;;
70052;SDS011;57398;52.032;4.376;2023-04-30T16:08:59;4.22;;;1.73;;
70052;SDS011;57398;52.032;4.376;2023-04-30T16:11:53;4.38;;;1.67;;
70052;SDS011;57398;52.032;4.376;2023-04-30T16:14:42;3.42;;;1.50;;
70052;SDS011;57398;52.032;4.376;2023-04-30T16:17:31;4.32;;;1.77;;
70052;SDS011;57398;52.032;4.376;2023-04-30T16:20:19;6.07;;;2.10;;
70052;SDS011;57398;52.032;4.376;2023-04-30T16:23:08;4.65;;;1.83;;
70052;SDS011;57398;52.032;4.376;2023-04-30T16:25:56;5.05;;;2.10;;
70052;SDS011;57398;52.032;4.376;2023-04-30T16:28:45;4.00;;;1.92;;
70052;SDS011;57398;52.032;4.376;2023-04-30T16:31:33;4.55;;;1.92;;
70052;SDS011;57398;52.032;4.376;2023-04-30T16:34:22;4.30;;;1.77;;
70052;SDS011;57398;52.032;4.376;2023-04-30T16:37:10;4.20;;;1.80;;
70052;SDS011;57398;52.032;4.376;2023-04-30T16:40:01;4.50;;;2.20;;
70052;SDS011;57398;52.032;4.376;2023-04-30T16:42:52;4.00;;;1.70;;
70052;SDS011;57398;52.032;4.376;2023-04-30T16:45:41;4.10;;;1.90;;
70052;SDS011;57398;52.032;4.376;2023-04-30T16:48:29;3.90;;;1.60;;